Time;durP1;ratioP1;P1;durP2;ratioP2;P2;SDS_P1;SDS_P2;PMS_P1;PMS_P2;Temp;Humidity;BMP_temperature;BMP_pressure;BME280_temperature;BME280_humidity;BME280_pressure;Samples;Min_cycle;Max_cycle;Signal;HPM_P1;HPM_P2
2022/01/16 00:04:06;;;;;;;35.50;31.80;;;2.50;99.90;;;;;;4924914;29;20318;-71
2022/01/16 00:04:58;;;;;;;34.10;30.58;;;2.50;99.90;;;;;;4915942;29;20232;-70
2022/01/16 00:07:26;;;;;;;36.30;29.58;;;2.50;99.90;;;;;;4921805;29;20239;-71
2022/01/16 00:09:54;;;;;;;35.55;31.75;;;2.50;99.90;;;;;;4911600;29;20212;-70
2022/01/16 00:12:23;;;;;;;31.88;28.67;;;2.50;99.90;;;;;;4923955;29;20315;-70
2022/01/16 00:14:51;;;;;;;34.88;31.08;;;2.50;99.90;;;;;;4929393;29;20208;-70
2022/01/16 00:17:22;;;;;;;33.88;30.40;;;2.40;99.90;;;;;;4925774;29;20673;-71
2022/01/16 00:19:51;;;;;;;34.78;30.40;;;2.40;99.90;;;;;;4907692;29;20205;-70
2022/01/16 00:22:23;;;;;;;33.85;30.42;;;2.50;99.90;;;;;;4927827;29;20282;-71
2022/01/16 00:24:51;;;;;;;33.50;30.20;;;2.50;99.90;;;;;;4911902;29;20266;-71
2022/01/16 00:27:19;;;;;;;34.90;31.23;;;2.30;99.90;;;;;;4919295;29;20227;-71
2022/01/16 00:29:47;;;;;;;33.17;29.88;;;2.40;99.90;;;;;;4910803;29;20204;-75
2022/01/16 00:32:15;;;;;;;34.20;30.60;;;2.30;99.90;;;;;;4912831;29;20293;-71
2022/01/16 00:34:44;;;;;;;34.78;31.08;;;2.30;99.90;;;;;;4916711;29;20224;-72
2022/01/16 00:37:14;;;;;;;35.20;31.40;;;2.30;99.90;;;;;;4913164;29;20205;-71
2022/01/16 00:39:42;;;;;;;38.22;32.58;;;2.20;99.90;;;;;;4909169;29;20197;-70
2022/01/16 00:42:09;;;;;;;43.63;37.95;;;2.40;99.90;;;;;;4913424;29;20589;-69
2022/01/16 00:44:37;;;;;;;41.70;35.83;;;2.70;99.90;;;;;;4911168;29;20235;-69
2022/01/16 00:47:06;;;;;;;42.92;33.67;;;2.60;99.90;;;;;;4912953;29;20617;-69
2022/01/16 00:49:36;;;;;;;38.63;32.22;;;2.80;99.90;;;;;;4908442;29;20237;-68
2022/01/16 00:52:06;;;;;;;40.95;30.08;;;3.20;99.90;;;;;;4911322;29;20248;-69
2022/01/16 00:54:33;;;;;;;38.00;30.88;;;3.50;99.90;;;;;;4905601;29;20213;-68
2022/01/16 00:57:01;;;;;;;35.33;29.58;;;3.80;99.90;;;;;;4913472;29;20267;-68
2022/01/16 00:59:29;;;;;;;28.80;25.67;;;3.60;99.90;;;;;;4911377;29;20277;-69
2022/01/16 01:01:57;;;;;;;30.60;25.33;;;3.60;99.90;;;;;;4910086;29;20240;-69
2022/01/16 01:04:25;;;;;;;27.50;24.48;;;3.50;99.90;;;;;;4927546;29;20295;-69
2022/01/16 01:06:53;;;;;;;26.48;23.63;;;3.50;99.90;;;;;;4911501;29;20654;-70
2022/01/16 01:09:23;;;;;;;27.75;23.83;;;3.30;99.90;;;;;;4934029;29;20236;-69
2022/01/16 01:11:51;;;;;;;27.10;23.20;;;3.30;99.90;;;;;;4933754;29;20655;-70
2022/01/16 01:14:25;;;;;;;28.27;22.45;;;3.30;99.90;;;;;;4933909;29;20259;-67
2022/01/16 01:16:55;;;;;;;26.48;22.33;;;3.20;99.90;;;;;;4934029;29;20733;-69
2022/01/16 01:19:28;;;;;;;25.75;21.92;;;2.90;99.90;;;;;;4933707;29;20295;-70
2022/01/16 01:21:57;;;;;;;22.80;20.40;;;2.90;99.90;;;;;;4933552;29;20266;-69
2022/01/16 01:24:27;;;;;;;19.30;17.33;;;2.90;99.90;;;;;;4914763;29;20212;-70
2022/01/16 01:27:02;;;;;;;19.75;17.17;;;2.70;99.90;;;;;;4934100;29;20254;-69
2022/01/16 01:29:30;;;;;;;20.02;17.90;;;3.00;99.90;;;;;;4933938;29;20212;-67
2022/01/16 01:32:00;;;;;;;18.15;16.48;;;2.80;99.90;;;;;;4928804;29;20272;-68
2022/01/16 01:34:30;;;;;;;21.20;17.92;;;3.00;99.90;;;;;;4919391;29;20271;-69
2022/01/16 01:36:58;;;;;;;20.23;18.05;;;3.30;99.90;;;;;;4934001;29;20212;-70
2022/01/16 01:39:27;;;;;;;18.00;16.20;;;3.40;99.90;;;;;;4933709;29;20239;-70
2022/01/16 01:42:05;;;;;;;17.55;15.85;;;3.70;99.90;;;;;;4933448;29;20255;-68
2022/01/16 01:52:52;;;;;;;19.50;16.88;;;3.40;99.90;;;;;;4933308;29;20929;-69
2022/01/16 01:55:23;;;;;;;21.95;19.50;;;3.30;99.90;;;;;;4933575;29;20287;-69
2022/01/16 01:57:51;;;;;;;25.40;20.80;;;3.20;99.90;;;;;;4933603;29;20295;-69
2022/01/16 02:00:21;;;;;;;25.05;21.83;;;3.00;99.90;;;;;;4935151;29;20303;-69
2022/01/16 02:03:06;;;;;;;28.08;23.25;;;3.10;99.90;;;;;;4879664;29;20198;-70
2022/01/16 02:05:34;;;;;;;38.25;27.55;;;2.90;99.90;;;;;;4876765;29;20241;-69
2022/01/16 02:08:04;;;;;;;39.80;29.70;;;3.00;99.90;;;;;;4880575;29;20249;-69
2022/01/16 02:10:35;;;;;;;40.92;31.15;;;2.70;99.90;;;;;;4880496;29;20258;-69
2022/01/16 02:13:06;;;;;;;43.30;32.92;;;2.60;99.90;;;;;;4880464;29;20679;-68
2022/01/16 02:27:58;;;;;;;59.17;39.15;;;2.50;99.90;;;;;;4880331;29;20225;-69
2022/01/16 02:33:10;;;;;;;62.60;42.95;;;2.40;99.90;;;;;;4846116;29;20379;-69
2022/01/16 02:35:37;;;;;;;56.53;39.08;;;2.50;99.90;;;;;;4876818;29;20629;-69
2022/01/16 02:38:06;;;;;;;59.05;40.28;;;2.30;99.90;;;;;;4874187;29;20230;-69
2022/01/16 02:40:38;;;;;;;47.90;35.75;;;2.20;99.90;;;;;;4873884;29;20253;-67
2022/01/16 02:43:05;;;;;;;44.70;34.65;;;2.20;99.90;;;;;;4879884;29;20238;-70
2022/01/16 02:45:37;;;;;;;43.33;34.20;;;2.40;99.90;;;;;;4880200;29;20240;-67
2022/01/16 02:48:07;;;;;;;39.92;32.28;;;2.40;99.90;;;;;;4880048;29;20221;-69
2022/01/16 02:50:36;;;;;;;38.50;31.20;;;2.30;99.90;;;;;;4879705;29;20230;-70
2022/01/16 02:53:09;;;;;;;39.65;31.52;;;2.40;99.90;;;;;;4879550;29;20248;-72
2022/01/16 02:55:41;;;;;;;38.60;31.98;;;2.50;99.90;;;;;;4880116;29;20297;-71
2022/01/16 02:58:09;;;;;;;43.97;32.90;;;2.40;99.90;;;;;;4879798;29;20241;-72
2022/01/16 03:00:37;;;;;;;43.03;33.45;;;2.20;99.90;;;;;;4883726;29;20326;-70
2022/01/16 03:03:05;;;;;;;53.92;36.72;;;2.20;99.90;;;;;;4925694;29;20203;-70
2022/01/16 03:05:35;;;;;;;44.75;32.75;;;2.20;99.90;;;;;;4930425;29;20214;-68
2022/01/16 03:08:05;;;;;;;41.58;32.95;;;2.20;99.90;;;;;;4931698;29;20286;-68
2022/01/16 03:10:59;;;;;;;38.58;31.92;;;2.30;99.90;;;;;;4928792;29;20348;-68
2022/01/16 03:13:31;;;;;;;37.72;31.10;;;2.50;99.90;;;;;;4935333;29;20275;-68
2022/01/16 03:15:59;;;;;;;33.55;28.25;;;2.70;99.90;;;;;;4935524;29;20256;-71
2022/01/16 03:23:58;;;;;;;29.63;25.17;;;2.60;99.90;;;;;;4929360;29;20260;-70
2022/01/16 03:26:26;;;;;;;27.17;23.15;;;2.80;99.90;;;;;;4923070;29;20208;-68
2022/01/16 03:28:56;;;;;;;24.73;21.52;;;3.10;99.90;;;;;;4923237;29;20240;-68
2022/01/16 03:31:23;;;;;;;21.65;19.13;;;3.10;99.90;;;;;;4923035;29;20267;-69
2022/01/16 03:33:51;;;;;;;23.52;20.92;;;3.10;99.90;;;;;;4918595;29;20302;-69
2022/01/16 03:36:19;;;;;;;24.92;20.95;;;3.10;99.90;;;;;;4935375;29;20279;-70
2022/01/16 03:38:47;;;;;;;22.20;19.85;;;3.00;99.90;;;;;;4935192;29;20273;-69
2022/01/16 03:41:15;;;;;;;23.63;20.88;;;2.90;99.90;;;;;;4934873;29;20224;-70
2022/01/16 03:43:43;;;;;;;23.80;19.98;;;3.00;99.90;;;;;;4934795;29;20242;-68
2022/01/16 03:46:12;;;;;;;25.52;22.63;;;2.80;99.90;;;;;;4934996;29;20208;-70
2022/01/16 03:48:40;;;;;;;22.70;20.40;;;2.80;99.90;;;;;;4934909;29;20206;-68
2022/01/16 03:51:09;;;;;;;22.85;19.95;;;2.70;99.90;;;;;;4934514;29;20259;-70
2022/01/16 03:53:37;;;;;;;27.25;24.30;;;2.80;99.90;;;;;;4934496;29;20259;-71
2022/01/16 03:56:05;;;;;;;25.15;21.05;;;2.80;99.90;;;;;;4934742;29;20772;-69
2022/01/16 03:58:33;;;;;;;25.63;21.50;;;2.90;99.90;;;;;;4934896;29;20819;-68
2022/01/16 04:01:00;;;;;;;25.65;21.05;;;3.10;99.90;;;;;;4929928;29;20268;-69
2022/01/16 04:03:30;;;;;;;24.30;20.67;;;3.00;99.90;;;;;;4922031;29;20219;-68
2022/01/16 04:05:58;;;;;;;25.27;20.92;;;2.90;99.90;;;;;;4930331;29;20255;-69
2022/01/16 04:08:26;;;;;;;24.17;20.88;;;2.80;99.90;;;;;;4934444;29;20243;-70
2022/01/16 04:10:53;;;;;;;24.13;20.60;;;2.70;99.90;;;;;;4930781;29;20307;-69
2022/01/16 04:13:21;;;;;;;24.80;21.95;;;2.90;99.90;;;;;;4934355;29;20207;-69
2022/01/16 04:15:50;;;;;;;24.25;20.48;;;2.80;99.90;;;;;;4926676;29;20296;-69
2022/01/16 04:18:18;;;;;;;23.73;20.88;;;2.70;99.90;;;;;;4929767;29;20267;-69
2022/01/16 04:20:47;;;;;;;23.55;20.42;;;2.80;99.90;;;;;;4934131;29;20251;-69
2022/01/16 04:23:15;;;;;;;23.98;21.50;;;2.90;99.90;;;;;;4933238;29;20235;-70
2022/01/16 04:25:43;;;;;;;27.40;24.50;;;2.90;99.90;;;;;;4929944;29;20676;-69
2022/01/16 04:28:11;;;;;;;25.77;22.98;;;2.60;99.90;;;;;;4934453;29;20634;-69
2022/01/16 04:30:38;;;;;;;23.80;21.30;;;2.70;99.90;;;;;;4933130;29;20255;-69
2022/01/16 04:33:06;;;;;;;25.02;22.17;;;2.90;99.90;;;;;;4915258;29;20236;-69
2022/01/16 04:35:34;;;;;;;26.05;22.60;;;2.60;99.90;;;;;;4933952;29;20227;-69
2022/01/16 04:38:03;;;;;;;26.98;24.17;;;2.40;99.90;;;;;;4934337;29;20227;-69
2022/01/16 04:40:41;;;;;;;24.42;22.02;;;2.10;99.90;;;;;;4934115;29;20220;-69
2022/01/16 04:45:58;;;;;;;24.85;22.48;;;2.10;99.90;;;;;;4921938;29;20288;-69
2022/01/16 04:48:26;;;;;;;24.92;22.42;;;1.90;99.90;;;;;;4921870;29;20207;-68
2022/01/16 04:50:54;;;;;;;23.30;21.00;;;2.10;99.90;;;;;;4921958;29;20327;-69
2022/01/16 04:53:24;;;;;;;22.45;20.15;;;2.10;99.90;;;;;;4915963;29;20242;-69
2022/01/16 04:55:52;;;;;;;22.85;20.45;;;2.50;99.90;;;;;;4934208;29;20320;-69
2022/01/16 04:58:21;;;;;;;22.98;20.73;;;2.70;99.90;;;;;;4934168;29;20226;-69
2022/01/16 05:00:54;;;;;;;22.63;20.33;;;2.70;99.90;;;;;;4931470;29;20258;-68
2022/01/16 05:03:22;;;;;;;23.10;20.38;;;2.70;99.90;;;;;;4913118;29;20268;-68
2022/01/16 05:05:50;;;;;;;22.35;20.15;;;2.70;99.90;;;;;;4931053;29;20228;-70
2022/01/16 05:08:18;;;;;;;23.67;21.23;;;2.60;99.90;;;;;;4934013;29;20235;-69
2022/01/16 05:10:48;;;;;;;21.00;18.90;;;2.50;99.90;;;;;;4933719;29;20310;-70
2022/01/16 05:16:34;;;;;;;21.77;19.58;;;2.40;99.90;;;;;;4933987;29;20331;-69
2022/01/16 05:16:36;;;;;;;22.73;19.05;;;2.20;99.90;;;;;;4934082;29;20593;-70
2022/01/16 05:19:07;;;;;;;20.92;18.88;;;2.20;99.90;;;;;;4926325;29;20212;-70
2022/01/16 05:21:35;;;;;;;19.60;17.75;;;2.60;99.90;;;;;;4924194;29;20255;-69
2022/01/16 05:24:07;;;;;;;19.73;17.83;;;2.60;99.90;;;;;;4927345;29;20226;-70
2022/01/16 05:26:37;;;;;;;17.67;15.93;;;2.50;99.90;;;;;;4933962;29;20571;-70
2022/01/16 05:29:06;;;;;;;16.88;15.27;;;2.70;99.90;;;;;;4933968;29;20647;-71
2022/01/16 05:31:33;;;;;;;17.10;15.50;;;2.80;99.90;;;;;;4925869;29;20224;-70
2022/01/16 05:34:02;;;;;;;16.50;14.60;;;2.60;99.90;;;;;;4924983;29;20700;-70
2022/01/16 05:36:30;;;;;;;16.23;14.77;;;2.50;99.90;;;;;;4935115;29;20697;-71
2022/01/16 05:38:58;;;;;;;16.48;14.98;;;2.50;99.90;;;;;;4937421;29;20259;-70
2022/01/16 05:41:26;;;;;;;16.25;14.60;;;2.70;99.90;;;;;;4937109;29;20655;-69
2022/01/16 05:43:55;;;;;;;17.65;16.02;;;2.90;99.90;;;;;;4937006;29;20235;-70
2022/01/16 05:46:23;;;;;;;16.00;14.45;;;2.90;99.90;;;;;;4937149;29;20200;-71
2022/01/16 05:48:51;;;;;;;17.95;16.25;;;2.90;99.90;;;;;;4937235;29;20222;-71
2022/01/16 05:51:19;;;;;;;14.25;12.85;;;2.60;99.90;;;;;;4936714;29;20697;-71
2022/01/16 05:53:50;;;;;;;13.90;12.50;;;2.70;99.90;;;;;;4936864;29;20725;-72
2022/01/16 05:56:18;;;;;;;15.57;13.98;;;2.70;99.90;;;;;;4936903;29;20639;-71
2022/01/16 05:58:46;;;;;;;15.57;14.02;;;2.90;99.90;;;;;;4937124;29;20267;-71
2022/01/16 06:01:15;;;;;;;15.25;13.85;;;3.30;99.90;;;;;;4926892;29;20237;-71
2022/01/16 06:03:43;;;;;;;14.60;13.10;;;3.60;99.90;;;;;;4919160;29;20227;-71
2022/01/16 06:06:11;;;;;;;14.07;12.68;;;3.70;99.90;;;;;;4936831;29;20665;-71
2022/01/16 06:08:39;;;;;;;14.18;12.85;;;3.80;99.90;;;;;;4936775;29;20246;-71
2022/01/16 06:11:07;;;;;;;14.95;13.30;;;3.70;99.90;;;;;;4936506;29;20319;-72
2022/01/16 06:13:35;;;;;;;14.10;12.68;;;3.60;99.90;;;;;;4936425;29;20251;-70
2022/01/16 06:16:03;;;;;;;14.95;13.45;;;3.70;99.90;;;;;;4936556;29;20634;-70
2022/01/16 06:18:33;;;;;;;15.13;13.65;;;3.70;99.90;;;;;;4936827;29;20216;-69
2022/01/16 06:21:01;;;;;;;14.18;12.75;;;3.70;99.90;;;;;;4936415;29;20232;-70
2022/01/16 06:23:29;;;;;;;14.68;13.00;;;3.80;99.90;;;;;;4910494;29;20239;-71
2022/01/16 06:25:57;;;;;;;13.38;11.50;;;3.70;99.90;;;;;;4933829;29;20655;-70
2022/01/16 06:28:27;;;;;;;13.57;12.18;;;3.70;99.90;;;;;;4955930;23;20687;-62
2022/01/16 06:30:55;;;;;;;15.15;13.55;;;3.50;99.90;;;;;;4940830;29;20263;-62
2022/01/16 06:33:24;;;;;;;15.85;13.90;;;3.70;99.90;;;;;;4931584;29;20212;-62
2022/01/16 06:35:53;;;;;;;14.60;13.07;;;3.60;99.90;;;;;;4947434;29;20924;-62
2022/01/16 06:38:21;;;;;;;13.55;12.25;;;3.30;99.90;;;;;;4955141;29;20259;-62
2022/01/16 06:40:49;;;;;;;12.07;10.98;;;3.20;99.90;;;;;;4954924;29;20271;-61
2022/01/16 06:43:17;;;;;;;10.38;9.48;;;3.20;99.90;;;;;;4954634;29;20206;-62
2022/01/16 06:45:45;;;;;;;11.80;10.65;;;3.10;99.90;;;;;;4954208;28;20223;-61
2022/01/16 06:48:13;;;;;;;10.15;9.25;;;3.10;99.90;;;;;;4954805;29;20235;-62
2022/01/16 06:50:41;;;;;;;10.10;9.23;;;2.90;99.90;;;;;;4954950;29;20210;-62
2022/01/16 06:53:10;;;;;;;10.43;9.52;;;2.80;99.90;;;;;;4954606;29;20245;-63
2022/01/16 06:55:38;;;;;;;9.00;8.30;;;3.00;99.90;;;;;;4954809;29;20243;-62
2022/01/16 06:58:06;;;;;;;11.45;9.38;;;2.90;99.90;;;;;;4954878;29;20242;-62
2022/01/16 07:00:34;;;;;;;10.15;9.35;;;3.20;99.90;;;;;;4951463;29;20282;-62
2022/01/16 07:03:02;;;;;;;10.60;9.70;;;3.30;99.90;;;;;;4939940;29;20687;-62
2022/01/16 07:05:30;;;;;;;9.05;8.23;;;3.40;99.90;;;;;;4935774;29;20539;-62
2022/01/16 07:07:58;;;;;;;9.65;8.80;;;3.50;99.90;;;;;;4926377;29;20252;-62
2022/01/16 07:10:27;;;;;;;9.02;8.25;;;3.60;99.90;;;;;;4929904;29;20650;-62
2022/01/16 07:12:55;;;;;;;8.88;8.05;;;3.60;99.90;;;;;;4930632;29;20552;-62
2022/01/16 07:15:23;;;;;;;10.02;9.20;;;3.70;99.90;;;;;;4934208;29;20650;-61
2022/01/16 07:17:50;;;;;;;7.75;7.15;;;3.90;99.90;;;;;;4929913;29;20311;-63
2022/01/16 07:20:18;;;;;;;8.55;7.85;;;3.90;99.90;;;;;;4928736;29;20204;-63
2022/01/16 07:22:47;;;;;;;9.57;8.75;;;3.90;99.90;;;;;;4930850;29;20288;-62
2022/01/16 07:25:15;;;;;;;9.57;8.77;;;4.10;99.90;;;;;;4927811;29;20235;-63
2022/01/16 07:27:44;;;;;;;10.10;9.20;;;4.00;99.90;;;;;;4923822;29;20352;-63
2022/01/16 07:30:12;;;;;;;10.35;9.45;;;3.90;99.90;;;;;;4926983;29;20204;-63
2022/01/16 07:32:40;;;;;;;11.73;10.52;;;4.10;99.90;;;;;;4926436;29;20386;-63
2022/01/16 07:35:09;;;;;;;12.43;10.13;;;4.00;99.90;;;;;;4927506;29;20232;-61
2022/01/16 07:37:57;;;;;;;11.20;10.20;;;4.50;99.90;;;;;;4938296;29;20233;-61
2022/01/16 07:40:26;;;;;;;14.00;9.57;;;5.90;99.90;;;;;;4940650;29;20242;-61
2022/01/16 07:42:56;;;;;;;9.60;7.90;;;7.70;99.90;;;;;;4947669;29;20258;-61
2022/01/16 07:45:24;;;;;;;9.55;8.55;;;8.50;99.90;;;;;;4943222;29;20215;-61
2022/01/16 07:47:52;;;;;;;7.30;6.60;;;9.00;99.90;;;;;;4943614;29;20322;-61
2022/01/16 07:50:20;;;;;;;9.55;7.68;;;9.30;99.90;;;;;;4945234;29;20242;-61
2022/01/16 07:52:49;;;;;;;11.10;10.10;;;9.20;99.90;;;;;;4947297;29;20294;-61
2022/01/16 07:55:21;;;;;;;11.10;10.00;;;8.40;99.90;;;;;;4943735;29;20916;-62
2022/01/16 07:57:51;;;;;;;11.18;10.07;;;7.10;99.90;;;;;;4930990;28;20247;-61
2022/01/16 08:00:32;;;;;;;13.57;12.18;;;5.80;99.90;;;;;;4937585;29;20225;-61
2022/01/16 08:03:02;;;;;;;14.73;13.25;;;4.80;99.90;;;;;;4932647;29;20239;-61
2022/01/16 08:05:30;;;;;;;15.25;13.65;;;4.20;99.90;;;;;;4932775;29;20208;-61
2022/01/16 08:07:58;;;;;;;16.30;14.60;;;3.70;99.90;;;;;;4939102;29;20228;-60
2022/01/16 08:10:26;;;;;;;19.40;17.20;;;3.30;99.90;;;;;;4947481;29;20231;-61
2022/01/16 08:12:54;;;;;;;22.08;18.27;;;3.00;99.90;;;;;;4943613;29;20237;-61
2022/01/16 08:15:22;;;;;;;22.60;20.40;;;2.90;99.90;;;;;;4946184;29;20286;-61
2022/01/16 08:17:51;;;;;;;22.83;20.23;;;2.70;99.90;;;;;;4942162;29;20224;-60
2022/01/16 08:20:19;;;;;;;24.65;22.15;;;2.60;99.90;;;;;;4942346;29;20246;-61
2022/01/16 08:22:47;;;;;;;27.13;24.33;;;2.50;99.90;;;;;;4944582;29;20226;-61
2022/01/16 08:25:15;;;;;;;29.25;26.30;;;2.40;99.90;;;;;;4947452;29;20314;-61
2022/01/16 08:27:43;;;;;;;26.92;24.15;;;2.40;99.90;;;;;;4940233;29;20267;-62
2022/01/16 08:30:12;;;;;;;28.35;25.35;;;2.40;99.90;;;;;;4943595;29;20214;-61
2022/01/16 08:32:43;;;;;;;28.20;25.40;;;2.30;99.90;;;;;;4937666;29;20231;-61
2022/01/16 08:35:14;;;;;;;31.52;28.25;;;2.30;99.90;;;;;;4933333;29;20203;-61
2022/01/16 08:37:42;;;;;;;35.25;28.42;;;2.40;99.90;;;;;;4939692;29;20259;-62
2022/01/16 08:40:11;;;;;;;31.65;28.35;;;2.30;99.90;;;;;;4934307;29;20298;-61
2022/01/16 08:42:40;;;;;;;33.58;30.33;;;2.20;99.90;;;;;;4944837;29;20301;-61
2022/01/16 08:45:09;;;;;;;32.05;28.83;;;2.20;99.90;;;;;;4943756;29;20207;-60
2022/01/16 08:47:37;;;;;;;33.10;29.70;;;2.20;99.90;;;;;;4943876;29;20227;-61
2022/01/16 08:50:06;;;;;;;33.80;30.10;;;2.30;99.90;;;;;;4944185;29;20254;-61
2022/01/16 08:52:36;;;;;;;33.45;30.05;;;2.20;99.90;;;;;;4941936;29;20828;-61
2022/01/16 08:55:04;;;;;;;33.17;29.80;;;2.10;99.90;;;;;;4944852;29;20231;-61
2022/01/16 08:57:32;;;;;;;35.40;31.27;;;2.20;99.90;;;;;;4938907;29;20317;-61
2022/01/16 09:00:00;;;;;;;35.15;31.48;;;2.20;99.90;;;;;;4935276;29;20196;-61
2022/01/16 09:02:28;;;;;;;40.67;34.47;;;2.20;99.90;;;;;;4935340;29;20281;-61
2022/01/16 09:04:56;;;;;;;41.63;34.28;;;2.20;99.90;;;;;;4940986;29;20207;-62
2022/01/16 09:07:24;;;;;;;38.65;34.65;;;2.10;99.90;;;;;;4941462;29;20231;-62
2022/01/16 09:09:53;;;;;;;38.92;34.78;;;2.10;99.90;;;;;;4943688;28;20770;-62
2022/01/16 09:12:21;;;;;;;40.80;36.45;;;2.20;99.90;;;;;;4947389;29;20294;-62
2022/01/16 09:14:48;;;;;;;42.58;36.95;;;2.30;99.90;;;;;;4951180;29;20242;-62
2022/01/16 09:17:16;;;;;;;44.25;36.83;;;2.30;99.90;;;;;;4947840;29;20274;-61
2022/01/16 09:19:46;;;;;;;39.45;35.45;;;2.30;99.90;;;;;;4942996;29;20350;-62
2022/01/16 09:22:14;;;;;;;41.05;35.67;;;2.40;99.90;;;;;;4948970;29;20227;-63
2022/01/16 09:24:42;;;;;;;40.20;35.88;;;2.50;99.90;;;;;;4945217;29;20233;-61
2022/01/16 09:27:11;;;;;;;39.95;35.83;;;2.50;99.90;;;;;;4939245;29;20259;-62
2022/01/16 09:29:39;;;;;;;37.78;33.75;;;2.50;99.90;;;;;;4894496;29;20288;-62
2022/01/16 09:32:08;;;;;;;42.63;38.03;;;2.50;99.90;;;;;;4899267;29;20395;-62
2022/01/16 09:34:35;;;;;;;41.42;37.03;;;2.60;99.90;;;;;;4887853;29;20236;-62
2022/01/16 09:37:08;;;;;;;40.15;35.97;;;2.50;99.90;;;;;;4901600;29;20259;-62
2022/01/16 09:39:36;;;;;;;40.30;35.80;;;2.50;99.90;;;;;;4895532;29;20238;-62
2022/01/16 09:42:06;;;;;;;40.80;36.63;;;2.50;99.90;;;;;;4893457;29;20236;-61
2022/01/16 09:44:38;;;;;;;42.33;37.88;;;2.50;99.90;;;;;;4893189;29;21080;-62
2022/01/16 09:47:06;;;;;;;39.53;35.30;;;2.60;99.90;;;;;;4898787;29;20292;-61
2022/01/16 09:49:35;;;;;;;37.50;33.53;;;2.70;99.90;;;;;;4898018;29;20265;-62
2022/01/16 09:52:03;;;;;;;39.35;34.25;;;2.70;99.90;;;;;;4907243;29;20301;-61
2022/01/16 09:54:31;;;;;;;38.55;34.58;;;2.60;99.90;;;;;;4899519;29;20254;-61
2022/01/16 09:56:59;;;;;;;42.17;36.45;;;2.60;99.90;;;;;;4891502;29;20320;-62
2022/01/16 09:59:27;;;;;;;40.72;36.15;;;2.60;99.90;;;;;;4905822;29;20761;-61
2022/01/16 10:01:57;;;;;;;42.20;37.63;;;2.60;99.90;;;;;;4897121;29;20257;-61
2022/01/16 10:04:32;;;;;;;37.45;33.47;;;2.70;99.90;;;;;;4888198;29;20210;-62
2022/01/16 10:07:01;;;;;;;39.30;34.65;;;2.70;99.90;;;;;;4893527;29;20204;-62
2022/01/16 10:09:29;;;;;;;38.00;33.92;;;2.70;99.90;;;;;;4893488;29;20316;-61
2022/01/16 10:11:59;;;;;;;37.67;32.95;;;2.60;99.90;;;;;;4907445;29;20232;-61
2022/01/16 10:14:45;;;;;;;38.78;34.60;;;2.60;99.90;;;;;;4906549;29;20299;-61
2022/01/16 10:17:17;;;;;;;36.22;32.50;;;2.60;99.90;;;;;;4909443;29;20231;-62
2022/01/16 10:19:46;;;;;;;38.08;33.50;;;2.60;99.90;;;;;;4902519;29;21047;-61
2022/01/16 10:22:15;;;;;;;37.60;33.47;;;2.60;99.90;;;;;;4895173;29;20289;-61
2022/01/16 10:24:43;;;;;;;37.28;33.38;;;2.60;99.90;;;;;;4893168;29;20292;-62
2022/01/16 10:27:18;;;;;;;37.08;32.75;;;2.60;99.90;;;;;;4906163;29;20292;-62
2022/01/16 10:29:51;;;;;;;37.58;31.45;;;2.60;99.90;;;;;;4939358;29;20966;-63
2022/01/16 10:32:26;;;;;;;38.53;32.30;;;2.60;99.90;;;;;;4936364;29;20204;-61
2022/01/16 10:35:07;;;;;;;35.92;32.00;;;2.60;99.90;;;;;;4943866;29;20298;-62
2022/01/16 10:37:35;;;;;;;34.47;29.38;;;2.60;99.90;;;;;;4946547;29;20310;-62
2022/01/16 10:40:07;;;;;;;31.17;27.70;;;2.60;99.90;;;;;;4947774;29;20231;-62
2022/01/16 10:42:36;;;;;;;35.22;30.60;;;2.60;99.90;;;;;;4944744;29;20211;-61
2022/01/16 10:45:08;;;;;;;34.25;27.75;;;2.60;99.90;;;;;;4948096;29;21166;-62
2022/01/16 10:47:40;;;;;;;33.45;29.85;;;2.60;99.90;;;;;;4940123;29;20286;-61
2022/01/16 10:50:16;;;;;;;33.03;29.63;;;2.60;99.90;;;;;;4926374;29;20235;-61
2022/01/16 10:52:56;;;;;;;33.67;27.42;;;2.60;99.90;;;;;;4935682;29;20207;-63
2022/01/16 10:55:32;;;;;;;33.50;29.83;;;2.50;99.90;;;;;;4947795;29;20302;-62
2022/01/16 10:58:03;;;;;;;29.83;26.58;;;2.50;99.90;;;;;;4946577;29;20257;-61
2022/01/16 11:00:31;;;;;;;32.58;28.80;;;2.50;99.90;;;;;;4944588;29;20319;-62
2022/01/16 11:03:03;;;;;;;32.85;29.30;;;2.50;99.90;;;;;;4929710;29;20204;-61
2022/01/16 11:05:35;;;;;;;33.05;29.55;;;2.50;99.90;;;;;;4941126;29;20270;-61
2022/01/16 11:08:05;;;;;;;31.33;28.00;;;2.40;99.90;;;;;;4949285;29;20816;-61
2022/01/16 11:10:35;;;;;;;34.20;28.92;;;2.50;99.90;;;;;;4933353;29;20298;-61
2022/01/16 11:13:06;;;;;;;31.60;28.13;;;2.40;99.90;;;;;;4948103;29;20219;-61
2022/01/16 11:15:35;;;;;;;32.25;28.70;;;2.40;99.90;;;;;;4929872;29;20224;-61
2022/01/16 11:18:04;;;;;;;36.33;32.35;;;2.40;99.90;;;;;;4934512;29;20242;-61
2022/01/16 11:20:35;;;;;;;32.03;28.73;;;2.40;99.90;;;;;;4947026;29;20235;-61
2022/01/16 11:23:13;;;;;;;33.92;30.02;;;2.40;99.90;;;;;;4942954;29;20215;-61
2022/01/16 11:25:42;;;;;;;35.95;32.25;;;2.40;99.90;;;;;;4945347;29;20226;-61
2022/01/16 11:28:13;;;;;;;34.95;31.15;;;2.50;99.90;;;;;;4944724;29;20231;-62
2022/01/16 11:30:44;;;;;;;35.15;31.52;;;2.50;99.90;;;;;;4947072;29;20290;-62
2022/01/16 11:33:13;;;;;;;32.95;27.70;;;2.50;99.90;;;;;;4938262;29;20673;-61
2022/01/16 11:35:48;;;;;;;30.45;27.17;;;2.40;99.90;;;;;;4938198;29;20266;-61
2022/01/16 11:38:19;;;;;;;32.45;29.05;;;2.50;99.90;;;;;;4945385;29;20305;-62
2022/01/16 11:40:48;;;;;;;32.45;28.63;;;2.50;99.90;;;;;;4942417;29;20286;-62
2022/01/16 11:43:26;;;;;;;29.92;26.60;;;2.50;99.90;;;;;;4938870;29;20312;-61
2022/01/16 11:46:07;;;;;;;32.15;28.83;;;2.50;99.90;;;;;;4934974;29;20677;-61
2022/01/16 11:48:46;;;;;;;29.00;25.92;;;2.50;99.90;;;;;;4943563;29;20840;-62
2022/01/16 11:51:58;;;;;;;29.50;26.40;;;2.50;99.90;;;;;;4941710;29;20598;-62
2022/01/16 11:54:29;;;;;;;29.80;26.70;;;2.60;99.90;;;;;;4935665;29;20199;-62
2022/01/16 11:57:03;;;;;;;29.13;26.23;;;2.60;99.90;;;;;;4932694;29;20640;-62
2022/01/16 11:59:41;;;;;;;33.72;26.20;;;2.70;99.90;;;;;;4943002;29;20326;-62
2022/01/16 12:02:21;;;;;;;31.63;28.05;;;2.70;99.90;;;;;;4923645;29;20279;-62
2022/01/16 12:05:06;;;;;;;30.30;27.10;;;2.80;99.90;;;;;;4926296;29;20287;-62
2022/01/16 12:07:55;;;;;;;30.13;27.05;;;2.80;99.90;;;;;;4944341;29;20227;-62
2022/01/16 12:10:43;;;;;;;31.38;27.98;;;2.80;99.90;;;;;;4940954;29;20211;-62
2022/01/16 12:13:57;;;;;;;33.17;29.23;;;2.80;99.90;;;;;;4932378;29;20235;-61
2022/01/16 12:16:37;;;;;;;29.85;26.65;;;2.80;99.90;;;;;;4939484;29;20227;-61
2022/01/16 12:19:37;;;;;;;31.25;27.73;;;2.90;99.90;;;;;;4943988;29;20330;-61
2022/01/16 12:22:08;;;;;;;29.77;26.48;;;2.90;99.90;;;;;;4933707;29;20637;-61
2022/01/16 12:24:39;;;;;;;31.88;27.83;;;2.90;99.90;;;;;;4945199;29;20258;-62
2022/01/16 12:27:35;;;;;;;34.05;29.25;;;3.00;99.90;;;;;;4942207;29;20966;-61
2022/01/16 12:30:13;;;;;;;30.20;26.90;;;3.00;99.90;;;;;;4928577;29;20278;-62
2022/01/16 12:32:52;;;;;;;30.52;27.33;;;3.10;99.90;;;;;;4920505;29;20204;-62
2022/01/16 12:36:08;;;;;;;30.48;27.27;;;3.10;99.90;;;;;;4917305;29;20745;-61
2022/01/16 12:38:44;;;;;;;30.65;27.33;;;3.10;99.90;;;;;;4914843;29;20268;-61
2022/01/16 12:41:16;;;;;;;32.30;26.10;;;3.10;99.90;;;;;;4916950;29;20298;-61
2022/01/16 12:43:50;;;;;;;29.17;26.08;;;3.20;99.90;;;;;;4919978;29;20200;-62
2022/01/16 12:46:21;;;;;;;31.67;26.45;;;3.30;99.90;;;;;;4924214;29;20798;-62
2022/01/16 12:48:51;;;;;;;28.23;25.23;;;3.40;99.90;;;;;;4923993;29;20311;-61
2022/01/16 12:51:21;;;;;;;29.55;26.42;;;3.50;99.90;;;;;;4923509;29;20302;-62
2022/01/16 12:53:52;;;;;;;25.95;23.13;;;3.60;99.90;;;;;;4923804;29;20209;-61
2022/01/16 12:56:26;;;;;;;27.75;23.75;;;3.60;99.90;;;;;;4914533;29;20290;-62
2022/01/16 12:58:56;;;;;;;26.02;23.15;;;3.60;99.90;;;;;;4912244;29;20263;-62
2022/01/16 13:01:25;;;;;;;26.05;22.52;;;3.60;99.90;;;;;;4919428;29;20264;-62
2022/01/16 13:03:53;;;;;;;26.90;22.83;;;3.70;99.90;;;;;;4909763;29;20225;-61
2022/01/16 13:06:28;;;;;;;28.67;23.48;;;3.70;99.90;;;;;;4913466;29;20236;-62
2022/01/16 13:09:04;;;;;;;26.38;22.08;;;3.70;99.90;;;;;;4914809;29;20318;-61
2022/01/16 13:11:35;;;;;;;26.10;21.77;;;3.80;99.90;;;;;;4917442;29;20294;-61
2022/01/16 13:14:04;;;;;;;28.75;22.17;;;3.90;99.90;;;;;;4927210;29;20231;-62
2022/01/16 13:16:36;;;;;;;25.67;21.15;;;3.90;99.90;;;;;;4924139;29;20246;-62
2022/01/16 13:19:11;;;;;;;24.98;21.08;;;3.90;99.90;;;;;;4921841;29;20239;-62
2022/01/16 13:21:47;;;;;;;23.95;21.00;;;3.80;99.90;;;;;;4921279;29;20208;-62
2022/01/16 13:24:28;;;;;;;23.65;19.70;;;3.90;99.90;;;;;;4914823;29;20633;-63
2022/01/16 13:26:56;;;;;;;21.88;19.58;;;4.00;99.90;;;;;;4919072;29;20239;-62
2022/01/16 13:29:29;;;;;;;23.73;19.80;;;4.00;99.90;;;;;;4933475;29;20326;-63